Архив погоды в Качуге

Метеограмма Качуг
Среда, 26 Июня
Время местн. Темп Ветер Видим Явления Облачность нижн/средн/верх Атм. давл. Влжн Точка росы ВНГО R Сост. почвы Tg s
Напр Скр Прв ур.ст ур.м изм
20:00 +13.1° Ю-З 1 - 20 км слабый ливневый дождь облачно 709 754 +0.4 91% +11.6° 1 км 3 - - -
17:00 +13.5° В 1 - 20 км слабый ливневый дождь облачно 709 754 +0.5 87% +11.4° 1 км - - - -
14:00 +14.3° В 2 - 20 км небо без изменений {ливневые осадки} облачно 708 753 +0.3 78% +10.6° 1.5 км - - - -
11:00 +12.3° В,Ю-В 1 - 20 км небо без изменений {ливневые осадки} облачно 708 753 +0.1 85% +9.8° 1 км - - - -
08:00 +10.8° Ю 2 - 10 км слабый ливневый дождь облачно 708 753 +0.4 93% +9.7° 1 км 15 Влажная (без луж) +12° -
05:00 +10.7° Ю-В 1 - 20 км - облачно 708 753 +0.2 93% +9.6° 1 км - - - -
02:00 +11.3° В 1 - - ливневый дождь облачно 707 753 +0.2 92% +10.1° 1 км - - - -
Вторник, 25 Июня
Время местн. Темп Ветер Видим Явления Облачность нижн/средн/верх Атм. давл. Влжн Точка росы ВНГО R Сост. почвы Tg s
Напр Скр Прв ур.ст ур.м изм
23:00 +12.5° штиль 0 - - слабый ливневый дождь облачно 707 752 +0.7 95% +11.7° 1 км - - - -
20:00 +15.7° В 2 - 10 км слабый ливневый дождь облачно 707 751 +0.5 94% +14.8° 1 км 16 - - -
17:00 +17.9° В,Ю-В 2 - 10 км слабый ливневый дождь облачно 706 750 +0.2 82% +14.8° 1 км - - - -
14:00 +19° Ю-В 3 - 20 км ливневый дождь облачно 706 750 +0.5 70% +13.5° 1 км - - - -
11:00 +21.3° З 1 - 20 км - облачно 705 749 -1.1 51% +10.9° 1.5 км - - - -
08:00 +15.5° штиль 0 - более 50 км - облачно 707 751 -0.6 71% +10.3° 1.5 км 0 Сухая (без трещин) +12° -
05:00 +12.7° штиль 0 - более 50 км - облачно 707 752 -1.1 82% +9.8° 1.5 км - - - -
02:00 +13.2° штиль 0 - - - облачно с прояснениями 708 753 -0.5 82% +10.2° 1.5 км - - - -
Понедельник, 24 Июня
Время местн. Темп Ветер Видим Явления Облачность нижн/средн/верх Атм. давл. Влжн Точка росы ВНГО R Сост. почвы Tg s
Напр Скр Прв ур.ст ур.м изм
23:00 +17.2° штиль 0 - - - облачно с прояснениями 709 753 -0.2 70% +11.7° 1.5 км - - - -
20:00 +25.2° Ю 1 - более 50 км - облачно 709 752 -0.5 47% +13.1° 1.5 км 0 - - -
17:00 +28.3° Ю 3 - более 50 км - облачно с прояснениями 709 752 -1.4 29% +8.7° 1.5 км - - - -
14:00 +26.4° Ю,Ю-В 2 - более 50 км - переменная облачность 711 754 -1.7 38% +10.8° 1.5 км - - - -
11:00 +21.7° Ю 2 - более 50 км - облачно с прояснениями 713 756 -0.9 57% +12.9° 1.5 км - - - -
08:00 +12.3° Ю-З 1 - 1 км местами туман облачно 713 759 0 91% +10.9° 300 м 0 Сухая (без трещин) +9° -
05:00 +9.1° Ю-В 1 - 20 км - переменная облачность 713 759 +0.2 93% +8.1° более 2.5 км - - - -
02:00 +11.2° В 1 - - - ясно 713 759 +0.5 92% +10° более 2.5 км - - - -
Воскресенье, 23 Июня
Время местн. Темп Ветер Видим Явления Облачность нижн/средн/верх Атм. давл. Влжн Точка росы ВНГО R Сост. почвы Tg s
Напр Скр Прв ур.ст ур.м изм
23:00 +16.7° З,С-З 1 - - - ясно 713 757 +0.3 80% +13.3° более 2.5 км - - - -
20:00 +20.3° З,С-З 1 - 20 км - преимущественно облачно 712 756 +0.1 68% +14.1° 1.5 км 0 - - -
17:00 +21.4° З,С-З 2 - 20 км - облачно 712 756 +0.5 60% +13.4° 1.5 км - - - -